createdAt,value
2023-05-16T00:00:54.936Z,980.98
2023-05-16T00:01:55.003Z,980.95
2023-05-16T00:02:55.013Z,981.00
2023-05-16T00:03:55.002Z,980.93
2023-05-16T00:04:54.894Z,980.98
2023-05-16T00:05:54.891Z,980.93
2023-05-16T00:06:54.875Z,980.94
2023-05-16T00:07:54.895Z,980.97
2023-05-16T00:08:54.862Z,980.93
2023-05-16T00:09:54.858Z,980.89
2023-05-16T00:10:54.835Z,980.91
2023-05-16T00:11:54.851Z,980.97
2023-05-16T00:12:54.810Z,980.92
2023-05-16T00:13:54.820Z,980.88
2023-05-16T00:14:54.776Z,980.88
2023-05-16T00:15:54.779Z,980.90
2023-05-16T00:16:54.821Z,980.91
2023-05-16T00:17:54.813Z,980.90
2023-05-16T00:18:54.757Z,980.93
2023-05-16T00:19:54.730Z,980.93
2023-05-16T00:20:54.749Z,980.91
2023-05-16T00:21:54.724Z,980.88
2023-05-16T00:22:54.726Z,980.90
2023-05-16T00:23:54.742Z,980.92
2023-05-16T00:24:54.695Z,980.85
2023-05-16T00:25:54.686Z,980.87
2023-05-16T00:26:54.661Z,980.91
2023-05-16T00:27:54.669Z,980.93
2023-05-16T00:28:54.642Z,980.86
2023-05-16T00:29:54.631Z,980.87
2023-05-16T00:30:54.612Z,980.88
2023-05-16T00:31:54.644Z,980.85
2023-05-16T00:32:54.680Z,980.86
2023-05-16T00:33:54.600Z,980.86
2023-05-16T00:34:54.590Z,980.88
2023-05-16T00:35:54.568Z,980.86
2023-05-16T00:36:54.555Z,980.80
2023-05-16T00:37:54.553Z,980.84
2023-05-16T00:38:54.525Z,980.87
2023-05-16T00:39:54.531Z,980.83
2023-05-16T00:40:54.518Z,980.81
2023-05-16T00:41:54.498Z,980.87
2023-05-16T00:42:54.488Z,980.82
2023-05-16T00:43:54.481Z,980.81
2023-05-16T00:44:54.472Z,980.79
2023-05-16T00:45:54.498Z,980.81
2023-05-16T00:46:54.481Z,980.73
2023-05-16T00:47:54.507Z,980.85
2023-05-16T00:48:54.420Z,980.81
2023-05-16T00:49:54.434Z,980.80
2023-05-16T00:50:54.410Z,980.82
2023-05-16T00:51:54.423Z,980.79
2023-05-16T00:52:54.379Z,980.78
2023-05-16T00:53:54.375Z,980.79
2023-05-16T00:54:54.366Z,980.84
2023-05-16T00:55:54.359Z,980.84
2023-05-16T00:56:54.336Z,980.81
2023-05-16T00:57:54.329Z,980.78
2023-05-16T00:58:54.319Z,980.86
2023-05-16T00:59:54.308Z,980.80
2023-05-16T01:00:54.292Z,980.83
2023-05-16T01:01:54.427Z,980.87
2023-05-16T01:02:54.369Z,980.82
2023-05-16T01:03:54.368Z,980.85
2023-05-16T01:04:54.255Z,980.85
2023-05-16T01:05:54.244Z,980.92
2023-05-16T01:06:54.236Z,980.96
2023-05-16T01:07:54.221Z,981.00
2023-05-16T01:08:54.200Z,980.95
2023-05-16T01:09:54.225Z,980.93
2023-05-16T01:10:54.182Z,980.94
2023-05-16T01:11:54.192Z,980.95
2023-05-16T01:12:54.177Z,980.96
2023-05-16T01:13:54.161Z,980.92
2023-05-16T01:14:54.128Z,980.90
2023-05-16T01:15:54.144Z,980.98
2023-05-16T01:16:54.148Z,980.93
2023-05-16T01:17:54.155Z,980.93
2023-05-16T01:18:54.208Z,980.93
2023-05-16T01:19:54.097Z,980.93
2023-05-16T01:20:54.061Z,981.00
2023-05-16T01:21:54.061Z,980.93
2023-05-16T01:22:54.053Z,980.90
2023-05-16T01:23:54.056Z,980.90
2023-05-16T01:24:54.019Z,980.92
2023-05-16T01:25:54.046Z,980.95
2023-05-16T01:26:54.047Z,981.01
2023-05-16T01:27:54.025Z,980.98
2023-05-16T01:28:54.026Z,980.93
2023-05-16T01:29:53.995Z,981.01
2023-05-16T01:30:53.965Z,981.03
2023-05-16T01:31:54.012Z,981.05
2023-05-16T01:32:54.059Z,980.99
2023-05-16T01:33:53.941Z,981.03
2023-05-16T01:34:53.919Z,981.04
2023-05-16T01:35:53.912Z,980.97
2023-05-16T01:36:53.921Z,980.96
2023-05-16T01:37:53.905Z,981.03
2023-05-16T01:38:53.889Z,980.97
2023-05-16T01:39:53.879Z,981.03
2023-05-16T01:40:53.871Z,980.95
2023-05-16T01:41:53.848Z,981.02
2023-05-16T01:42:53.820Z,980.98
2023-05-16T01:43:53.824Z,980.98
2023-05-16T01:44:53.847Z,981.04
2023-05-16T01:45:53.814Z,980.98
2023-05-16T01:46:53.847Z,980.97
2023-05-16T01:47:53.843Z,981.01
2023-05-16T01:48:53.776Z,980.99
2023-05-16T01:49:53.798Z,981.00
2023-05-16T01:50:53.760Z,980.94
2023-05-16T01:51:53.768Z,981.00
2023-05-16T01:52:53.737Z,980.97
2023-05-16T01:53:53.724Z,980.96
2023-05-16T01:54:53.705Z,980.93
2023-05-16T01:55:53.712Z,981.01
2023-05-16T01:56:53.686Z,980.98
2023-05-16T01:57:53.687Z,981.00
2023-05-16T01:58:53.681Z,980.96
2023-05-16T01:59:53.659Z,981.02
2023-05-16T02:00:53.677Z,980.97
2023-05-16T02:01:53.650Z,980.98
2023-05-16T02:02:53.662Z,980.99
2023-05-16T02:03:53.696Z,981.02
2023-05-16T02:04:53.609Z,980.95
2023-05-16T02:05:53.638Z,980.97
2023-05-16T02:06:53.590Z,980.97
2023-05-16T02:07:53.579Z,980.94
2023-05-16T02:08:53.553Z,980.94
2023-05-16T02:09:53.553Z,980.95
2023-05-16T02:10:53.562Z,981.02
2023-05-16T02:11:53.541Z,980.96
2023-05-16T02:12:53.516Z,980.97
2023-05-16T02:13:53.502Z,980.98
2023-05-16T02:14:53.499Z,980.96
2023-05-16T02:15:53.500Z,980.99
2023-05-16T02:16:53.509Z,980.96
2023-05-16T02:17:53.595Z,980.97
2023-05-16T02:18:53.506Z,980.97
2023-05-16T02:19:53.440Z,980.95
2023-05-16T02:20:53.427Z,980.91
2023-05-16T02:21:53.429Z,980.99
2023-05-16T02:22:53.413Z,981.01
2023-05-16T02:23:53.416Z,981.09
2023-05-16T02:24:53.384Z,981.04
2023-05-16T02:25:53.376Z,981.02
2023-05-16T02:26:53.364Z,981.11
2023-05-16T02:27:53.354Z,980.98
2023-05-16T02:28:53.359Z,981.02
2023-05-16T02:29:53.335Z,981.10
2023-05-16T02:30:53.349Z,981.07
2023-05-16T02:31:53.333Z,981.07
2023-05-16T02:32:53.402Z,981.09
2023-05-16T02:33:53.286Z,981.10
2023-05-16T02:34:53.280Z,981.01
2023-05-16T02:35:53.286Z,981.07
2023-05-16T02:36:53.245Z,981.06
2023-05-16T02:37:53.253Z,981.06
2023-05-16T02:38:53.231Z,981.06
2023-05-16T02:39:53.257Z,981.06
2023-05-16T02:40:53.210Z,981.05
2023-05-16T02:41:53.216Z,981.04
2023-05-16T02:42:53.185Z,981.06
2023-05-16T02:43:53.180Z,981.03
2023-05-16T02:44:53.184Z,981.02
2023-05-16T02:45:53.230Z,981.09
2023-05-16T02:46:53.159Z,981.03
2023-05-16T02:47:53.222Z,981.06
2023-05-16T02:48:53.125Z,981.08
2023-05-16T02:49:53.112Z,981.11
2023-05-16T02:50:53.114Z,981.09
2023-05-16T02:51:53.119Z,981.09
2023-05-16T02:52:53.091Z,981.11
2023-05-16T02:53:53.074Z,981.12
2023-05-16T02:55:04.749Z,981.14
2023-05-16T02:55:54.062Z,981.06
2023-05-16T02:56:53.033Z,981.11
2023-05-16T02:57:53.059Z,981.13
2023-05-16T02:58:53.007Z,981.11
2023-05-16T02:59:53.026Z,981.17
2023-05-16T03:00:52.991Z,981.13
2023-05-16T03:01:53.040Z,981.17
2023-05-16T03:02:53.103Z,981.17
2023-05-16T03:03:53.057Z,981.13
2023-05-16T03:04:52.949Z,981.17
2023-05-16T03:05:52.936Z,981.21
2023-05-16T03:06:52.927Z,981.16
2023-05-16T03:07:52.918Z,981.19
2023-05-16T03:08:52.919Z,981.19
2023-05-16T03:09:52.908Z,981.18
2023-05-16T03:10:52.882Z,981.19
2023-05-16T03:11:52.883Z,981.14
2023-05-16T03:12:52.894Z,981.17
2023-05-16T03:13:52.876Z,981.18
2023-05-16T03:14:52.840Z,981.16
2023-05-16T03:15:52.898Z,981.16
2023-05-16T03:16:52.816Z,981.21
2023-05-16T03:17:52.835Z,981.16
2023-05-16T03:18:52.922Z,981.16
2023-05-16T03:19:52.787Z,981.17
2023-05-16T03:20:52.822Z,981.18
2023-05-16T03:21:52.832Z,981.16
2023-05-16T03:22:52.772Z,981.18
2023-05-16T03:23:52.758Z,981.15
2023-05-16T03:24:52.737Z,981.19
2023-05-16T03:25:52.724Z,981.16
2023-05-16T03:26:52.733Z,981.16
2023-05-16T03:27:52.705Z,981.14
2023-05-16T03:28:52.697Z,981.21
2023-05-16T03:29:52.687Z,981.14
2023-05-16T03:30:52.694Z,981.17
2023-05-16T03:31:52.682Z,981.17
2023-05-16T03:32:52.701Z,981.15
2023-05-16T03:33:52.652Z,981.20
2023-05-16T03:34:52.646Z,981.21
2023-05-16T03:35:52.637Z,981.21
2023-05-16T03:36:52.626Z,981.21
2023-05-16T03:37:52.642Z,981.18
2023-05-16T03:38:52.599Z,981.13
2023-05-16T03:39:52.594Z,981.20
2023-05-16T03:40:52.612Z,981.20
2023-05-16T03:41:52.610Z,981.19
2023-05-16T03:42:52.553Z,981.17
2023-05-16T03:43:52.946Z,981.21
2023-05-16T03:44:52.517Z,981.18
2023-05-16T03:45:52.571Z,981.22
2023-05-16T03:46:52.502Z,981.19
2023-05-16T03:47:52.518Z,981.17
2023-05-16T03:48:52.485Z,981.16
2023-05-16T03:49:52.481Z,981.23
2023-05-16T03:50:52.483Z,981.21
2023-05-16T03:51:52.481Z,981.20
2023-05-16T03:52:52.430Z,981.20
2023-05-16T03:53:52.445Z,981.20
2023-05-16T03:54:52.406Z,981.22
2023-05-16T03:55:52.412Z,981.21
2023-05-16T03:56:52.389Z,981.20
2023-05-16T03:57:52.381Z,981.19
2023-05-16T03:58:52.371Z,981.24
2023-05-16T03:59:52.384Z,981.22
2023-05-16T04:00:52.344Z,981.23
2023-05-16T04:01:52.361Z,981.26
2023-05-16T04:02:52.458Z,981.24
2023-05-16T04:03:52.320Z,981.26
2023-05-16T04:04:52.317Z,981.20
2023-05-16T04:05:52.317Z,981.21
2023-05-16T04:06:52.292Z,981.31
2023-05-16T04:07:52.275Z,981.29
2023-05-16T04:08:52.289Z,981.31
2023-05-16T04:09:52.270Z,981.30
2023-05-16T04:10:52.225Z,981.30
2023-05-16T04:11:52.241Z,981.36
2023-05-16T04:12:52.244Z,981.34
2023-05-16T04:13:52.275Z,981.30
2023-05-16T04:14:52.213Z,981.40
2023-05-16T04:15:52.178Z,981.38
2023-05-16T04:16:52.216Z,981.38
2023-05-16T04:17:52.219Z,981.38
2023-05-16T04:18:52.255Z,981.40
2023-05-16T04:19:52.154Z,981.46
2023-05-16T04:20:52.128Z,981.37
2023-05-16T04:21:52.156Z,981.43
2023-05-16T04:22:52.130Z,981.44
2023-05-16T04:23:52.094Z,981.44
2023-05-16T04:24:52.089Z,981.39
2023-05-16T04:25:52.088Z,981.42
2023-05-16T04:26:52.068Z,981.50
2023-05-16T04:27:52.051Z,981.39
2023-05-16T04:28:52.065Z,981.44
2023-05-16T04:29:52.053Z,981.46
2023-05-16T04:30:52.027Z,981.50
2023-05-16T04:31:52.082Z,981.47
2023-05-16T04:32:52.132Z,981.50
2023-05-16T04:33:52.013Z,981.52
2023-05-16T04:34:52.703Z,981.53
2023-05-16T04:35:51.976Z,981.55
2023-05-16T04:36:52.669Z,981.52
2023-05-16T04:37:51.962Z,981.52
2023-05-16T04:38:51.958Z,981.53
2023-05-16T04:39:51.932Z,981.53
2023-05-16T04:40:51.948Z,981.57
2023-05-16T04:41:51.905Z,981.52
2023-05-16T04:42:51.898Z,981.52
2023-05-16T04:43:51.881Z,981.56
2023-05-16T04:44:51.873Z,981.55
2023-05-16T04:45:51.905Z,981.62
2023-05-16T04:46:51.919Z,981.59
2023-05-16T04:47:51.881Z,981.62
2023-05-16T04:48:51.835Z,981.63
2023-05-16T04:49:51.810Z,981.65
2023-05-16T04:50:51.827Z,981.61
2023-05-16T04:51:51.789Z,981.62
2023-05-16T04:52:51.798Z,981.59
2023-05-16T04:53:51.779Z,981.69
2023-05-16T04:54:51.783Z,981.69
2023-05-16T04:55:51.755Z,981.62
2023-05-16T04:56:51.751Z,981.66
2023-05-16T04:57:51.740Z,981.62
2023-05-16T04:58:51.727Z,981.72
2023-05-16T04:59:51.724Z,981.68
2023-05-16T05:00:51.697Z,981.71
2023-05-16T05:01:51.741Z,981.73
2023-05-16T05:02:51.729Z,981.66
2023-05-16T05:03:51.681Z,981.76
2023-05-16T05:04:51.733Z,981.78
2023-05-16T05:05:51.643Z,981.73
2023-05-16T05:06:51.648Z,981.75
2023-05-16T05:07:51.616Z,981.75
2023-05-16T05:08:51.616Z,981.72
2023-05-16T05:09:51.605Z,981.80
2023-05-16T05:10:51.603Z,981.79
2023-05-16T05:11:51.613Z,981.84
2023-05-16T05:12:51.576Z,981.82
2023-05-16T05:13:53.114Z,981.78
2023-05-16T05:14:51.568Z,981.86
2023-05-16T05:15:51.538Z,981.88
2023-05-16T05:16:51.567Z,981.84
2023-05-16T05:17:51.610Z,981.86
2023-05-16T05:18:51.731Z,981.80
2023-05-16T05:19:51.506Z,981.87
2023-05-16T05:20:51.481Z,981.88
2023-05-16T05:21:51.501Z,981.79
2023-05-16T05:22:51.458Z,981.86
2023-05-16T05:23:51.457Z,981.81
2023-05-16T05:24:51.439Z,981.83
2023-05-16T05:25:51.439Z,981.78
2023-05-16T05:26:51.432Z,981.86
2023-05-16T05:27:51.409Z,981.87
2023-05-16T05:29:03.966Z,981.83
2023-05-16T05:29:52.403Z,981.80
2023-05-16T05:30:51.403Z,981.91
2023-05-16T05:31:51.389Z,981.86
2023-05-16T05:32:51.365Z,981.77
2023-05-16T05:33:51.350Z,981.85
2023-05-16T05:34:51.328Z,981.87
2023-05-16T05:35:51.321Z,981.86
2023-05-16T05:36:51.304Z,981.77
2023-05-16T05:37:51.297Z,981.77
2023-05-16T05:38:51.285Z,981.79
2023-05-16T05:39:51.266Z,981.81
2023-05-16T05:40:51.262Z,981.80
2023-05-16T05:41:51.310Z,981.77
2023-05-16T05:42:51.246Z,981.80
2023-05-16T05:43:51.222Z,981.74
2023-05-16T05:44:51.264Z,981.79
2023-05-16T05:45:51.230Z,981.80
2023-05-16T05:46:51.210Z,981.86
2023-05-16T05:47:51.335Z,981.79
2023-05-16T05:48:51.168Z,981.82
2023-05-16T05:49:51.165Z,981.85
2023-05-16T05:50:51.174Z,981.82
2023-05-16T05:51:51.164Z,981.83
2023-05-16T05:52:51.132Z,981.86
2023-05-16T05:53:51.122Z,981.85
2023-05-16T05:54:51.125Z,981.93
2023-05-16T05:55:51.093Z,981.93
2023-05-16T05:56:51.111Z,981.94
2023-05-16T05:57:51.075Z,982.00
2023-05-16T05:58:51.077Z,981.91
2023-05-16T05:59:51.056Z,981.95
2023-05-16T06:00:51.048Z,981.91
2023-05-16T06:01:51.087Z,981.95
2023-05-16T06:02:51.169Z,981.97
2023-05-16T06:03:51.007Z,981.95
2023-05-16T06:04:51.038Z,981.96
2023-05-16T06:05:51.066Z,981.98
2023-05-16T06:06:50.988Z,981.95
2023-05-16T06:07:50.983Z,982.06
2023-05-16T06:08:50.977Z,981.99
2023-05-16T06:09:50.948Z,982.03
2023-05-16T06:10:50.969Z,982.09
2023-05-16T06:11:50.968Z,982.09
2023-05-16T06:12:50.920Z,982.04
2023-05-16T06:13:50.920Z,982.10
2023-05-16T06:14:50.892Z,982.15
2023-05-16T06:15:50.879Z,982.18
2023-05-16T06:16:50.906Z,982.15
2023-05-16T06:17:50.912Z,982.11
2023-05-16T06:18:50.861Z,982.11
2023-05-16T06:19:50.855Z,982.11
2023-05-16T06:20:50.832Z,982.10
2023-05-16T06:21:50.820Z,982.10
2023-05-16T06:22:50.816Z,982.09
2023-05-16T06:23:50.824Z,982.07
2023-05-16T06:24:50.785Z,982.09
2023-05-16T06:25:50.776Z,982.12
2023-05-16T06:26:50.790Z,982.12
2023-05-16T06:27:50.750Z,982.13
2023-05-16T06:28:50.753Z,982.14
2023-05-16T06:29:50.736Z,982.17
2023-05-16T06:30:50.754Z,982.19
2023-05-16T06:31:50.802Z,982.21
2023-05-16T06:32:50.742Z,982.23
2023-05-16T06:33:50.688Z,982.27
2023-05-16T06:34:50.703Z,982.21
2023-05-16T06:35:50.687Z,982.24
2023-05-16T06:36:50.671Z,982.26
2023-05-16T06:37:50.654Z,982.29
2023-05-16T06:38:50.637Z,982.24
2023-05-16T06:39:50.656Z,982.23
2023-05-16T06:40:50.614Z,982.29
2023-05-16T06:41:50.607Z,982.29
2023-05-16T06:42:50.624Z,982.24
2023-05-16T06:43:50.576Z,982.34
2023-05-16T06:44:50.608Z,982.32
2023-05-16T06:45:50.562Z,982.29
2023-05-16T06:46:50.640Z,982.30
2023-05-16T06:47:50.571Z,982.33
2023-05-16T06:48:50.539Z,982.35
2023-05-16T06:49:50.543Z,982.32
2023-05-16T06:50:50.525Z,982.30
2023-05-16T06:51:50.506Z,982.26
2023-05-16T06:52:50.491Z,982.30
2023-05-16T06:53:50.473Z,982.30
2023-05-16T06:54:50.477Z,982.24
2023-05-16T06:55:50.479Z,982.28
2023-05-16T06:56:50.448Z,982.24
2023-05-16T06:57:50.450Z,982.29
2023-05-16T06:58:50.443Z,982.30
2023-05-16T06:59:50.511Z,982.29
2023-05-16T07:00:50.499Z,982.33
2023-05-16T07:01:50.428Z,982.30
2023-05-16T07:02:50.523Z,982.33
2023-05-16T07:03:50.497Z,982.36
2023-05-16T07:04:50.403Z,982.38
2023-05-16T07:05:50.364Z,982.35
2023-05-16T07:06:50.340Z,982.42
2023-05-16T07:07:50.320Z,982.37
2023-05-16T07:08:50.314Z,982.35
2023-05-16T07:09:50.313Z,982.39
2023-05-16T07:10:50.294Z,982.43
2023-05-16T07:11:50.297Z,982.39
2023-05-16T07:12:50.273Z,982.45
2023-05-16T07:13:50.258Z,982.47
2023-05-16T07:14:50.271Z,982.45
2023-05-16T07:15:50.228Z,982.46
2023-05-16T07:16:50.264Z,982.45
2023-05-16T07:17:50.240Z,982.46
2023-05-16T07:18:50.269Z,982.47
2023-05-16T07:19:50.205Z,982.46
2023-05-16T07:20:50.190Z,982.43
2023-05-16T07:21:50.177Z,982.45
2023-05-16T07:22:50.181Z,982.45
2023-05-16T07:23:50.165Z,982.50
2023-05-16T07:24:50.144Z,982.45
2023-05-16T07:25:50.133Z,982.49
2023-05-16T07:26:50.140Z,982.42
2023-05-16T07:27:50.109Z,982.48
2023-05-16T07:28:50.112Z,982.47
2023-05-16T07:29:50.098Z,982.47
2023-05-16T07:30:50.076Z,982.49
2023-05-16T07:31:50.098Z,982.52
2023-05-16T07:32:50.134Z,982.51
2023-05-16T07:33:50.056Z,982.50
2023-05-16T07:34:50.042Z,982.54
2023-05-16T07:35:50.031Z,982.55
2023-05-16T07:36:50.017Z,982.54
2023-05-16T07:37:50.001Z,982.63
2023-05-16T07:38:50.028Z,982.57
2023-05-16T07:39:49.981Z,982.58
2023-05-16T07:40:49.971Z,982.59
2023-05-16T07:41:49.954Z,982.56
2023-05-16T07:42:49.947Z,982.52
2023-05-16T07:43:49.977Z,982.51
2023-05-16T07:44:49.924Z,982.53
2023-05-16T07:45:49.965Z,982.50
2023-05-16T07:46:49.900Z,982.62
2023-05-16T07:47:49.946Z,982.58
2023-05-16T07:48:49.882Z,982.61
2023-05-16T07:49:49.890Z,982.58
2023-05-16T07:50:49.861Z,982.57
2023-05-16T07:51:49.851Z,982.61
2023-05-16T07:52:49.836Z,982.61
2023-05-16T07:53:49.821Z,982.63
2023-05-16T07:54:49.822Z,982.62
2023-05-16T07:55:49.798Z,982.68
2023-05-16T07:56:49.790Z,982.63
2023-05-16T07:57:50.578Z,982.66
2023-05-16T07:58:49.802Z,982.69
2023-05-16T07:59:49.807Z,982.66
2023-05-16T08:00:49.768Z,982.68
2023-05-16T08:01:49.748Z,982.67
2023-05-16T08:02:49.801Z,982.66
2023-05-16T08:03:49.801Z,982.69
2023-05-16T08:04:49.702Z,982.68
2023-05-16T08:05:49.746Z,982.67
2023-05-16T08:06:49.701Z,982.73
2023-05-16T08:07:49.664Z,982.70
2023-05-16T08:08:49.661Z,982.67
2023-05-16T08:09:49.652Z,982.70
2023-05-16T08:10:50.397Z,982.70
2023-05-16T08:11:49.624Z,982.74
2023-05-16T08:12:49.620Z,982.70
2023-05-16T08:13:49.652Z,982.73
2023-05-16T08:14:49.600Z,982.69
2023-05-16T08:15:49.644Z,982.68
2023-05-16T08:16:49.575Z,982.72
2023-05-16T08:17:49.621Z,982.76
2023-05-16T08:18:49.592Z,982.72
2023-05-16T08:19:49.532Z,982.72
2023-05-16T08:20:49.530Z,982.75
2023-05-16T08:21:49.515Z,982.73
2023-05-16T08:22:49.514Z,982.77
2023-05-16T08:23:49.505Z,982.75
2023-05-16T08:24:49.507Z,982.73
2023-05-16T08:25:49.464Z,982.79
2023-05-16T08:26:49.473Z,982.86
2023-05-16T08:27:49.474Z,982.81
2023-05-16T08:28:49.443Z,982.86
2023-05-16T08:29:49.451Z,982.90
2023-05-16T08:30:49.417Z,982.92
2023-05-16T08:31:49.526Z,982.90
2023-05-16T08:32:49.481Z,982.87
2023-05-16T08:33:49.382Z,982.87
2023-05-16T08:34:49.378Z,982.90
2023-05-16T08:35:49.372Z,982.93
2023-05-16T08:36:49.351Z,982.88
2023-05-16T08:37:49.348Z,982.91
2023-05-16T08:38:49.326Z,982.95
2023-05-16T08:39:49.325Z,982.94
2023-05-16T08:40:49.314Z,982.98
2023-05-16T08:41:49.314Z,982.96
2023-05-16T08:42:49.280Z,982.92
2023-05-16T08:43:49.281Z,982.89
2023-05-16T08:44:49.261Z,982.93
2023-05-16T08:45:49.285Z,982.91
2023-05-16T08:46:49.283Z,982.98
2023-05-16T08:47:49.289Z,982.93
2023-05-16T08:48:49.224Z,982.96
2023-05-16T08:49:49.975Z,982.95
2023-05-16T08:50:49.200Z,982.96
2023-05-16T08:51:49.191Z,982.98
2023-05-16T08:52:49.229Z,982.94
2023-05-16T08:53:49.193Z,983.01
2023-05-16T08:55:05.724Z,983.00
2023-05-16T08:55:50.152Z,982.99
2023-05-16T08:56:49.136Z,982.98
2023-05-16T08:57:49.125Z,983.02
2023-05-16T08:58:49.138Z,982.99
2023-05-16T08:59:49.105Z,983.04
2023-05-16T09:00:49.112Z,983.01
2023-05-16T09:01:49.096Z,983.05
2023-05-16T09:02:49.109Z,983.00
2023-05-16T09:03:49.101Z,983.06
2023-05-16T09:04:49.046Z,983.06
2023-05-16T09:05:49.040Z,983.10
2023-05-16T09:06:49.066Z,983.07
2023-05-16T09:07:49.019Z,983.08
2023-05-16T09:08:49.016Z,983.12
2023-05-16T09:09:49.019Z,983.11
2023-05-16T09:10:48.996Z,983.09
2023-05-16T09:11:48.974Z,983.09
2023-05-16T09:12:48.959Z,983.09
2023-05-16T09:13:48.985Z,983.09
2023-05-16T09:14:48.980Z,983.06
2023-05-16T09:15:48.951Z,983.08
2023-05-16T09:16:49.009Z,983.14
2023-05-16T09:17:49.251Z,983.07
2023-05-16T09:18:48.983Z,983.11
2023-05-16T09:19:48.897Z,983.11
2023-05-16T09:20:48.899Z,983.13
2023-05-16T09:21:48.869Z,983.06
2023-05-16T09:22:48.884Z,983.10
2023-05-16T09:23:48.856Z,983.10
2023-05-16T09:24:48.830Z,983.06
2023-05-16T09:25:48.820Z,983.08
2023-05-16T09:26:48.825Z,983.05
2023-05-16T09:27:48.820Z,983.04
2023-05-16T09:28:48.803Z,982.99
2023-05-16T09:29:48.780Z,983.02
2023-05-16T09:30:48.823Z,983.04
2023-05-16T09:31:48.818Z,983.07
2023-05-16T09:32:48.781Z,983.08
2023-05-16T09:33:48.733Z,983.05
2023-05-16T09:34:48.737Z,983.09
2023-05-16T09:35:49.070Z,983.07
2023-05-16T09:36:48.717Z,983.11
2023-05-16T09:37:48.711Z,982.99
2023-05-16T09:38:48.676Z,983.02
2023-05-16T09:39:48.666Z,983.03
2023-05-16T09:40:48.660Z,983.04
2023-05-16T09:41:48.666Z,983.05
2023-05-16T09:42:48.636Z,983.00
2023-05-16T09:43:48.627Z,983.04
2023-05-16T09:44:48.608Z,983.02
2023-05-16T09:45:48.630Z,982.98
2023-05-16T09:46:48.727Z,982.96
2023-05-16T09:47:48.655Z,982.99
2023-05-16T09:48:48.630Z,982.96
2023-05-16T09:49:48.567Z,982.91
2023-05-16T09:50:48.548Z,982.96
2023-05-16T09:51:48.550Z,982.94
2023-05-16T09:52:48.551Z,982.94
2023-05-16T09:53:48.518Z,982.91
2023-05-16T09:54:48.500Z,982.95
2023-05-16T09:55:48.495Z,982.93
2023-05-16T09:56:48.494Z,982.87
2023-05-16T09:57:48.472Z,982.96
2023-05-16T09:58:48.484Z,982.93
2023-05-16T09:59:48.462Z,982.86
2023-05-16T10:00:48.438Z,982.92
2023-05-16T10:01:48.497Z,982.93
2023-05-16T10:02:48.491Z,982.92
2023-05-16T10:03:48.516Z,982.85
2023-05-16T10:04:48.412Z,982.95
2023-05-16T10:05:48.406Z,982.95
2023-05-16T10:06:48.372Z,982.93
2023-05-16T10:07:48.377Z,982.91
2023-05-16T10:08:48.350Z,982.97
2023-05-16T10:09:48.349Z,983.00
2023-05-16T10:10:48.360Z,982.94
2023-05-16T10:11:48.322Z,983.02
2023-05-16T10:12:48.311Z,982.97
2023-05-16T10:13:48.301Z,983.00
2023-05-16T10:14:48.300Z,982.99
2023-05-16T10:15:48.289Z,982.97
2023-05-16T10:16:48.420Z,982.98
2023-05-16T10:17:48.328Z,982.88
2023-05-16T10:18:48.295Z,982.87
2023-05-16T10:19:48.239Z,982.84
2023-05-16T10:20:48.222Z,982.84
2023-05-16T10:21:48.243Z,982.84
2023-05-16T10:22:48.198Z,982.83
2023-05-16T10:23:48.199Z,982.78
2023-05-16T10:24:48.189Z,982.77
2023-05-16T10:25:48.190Z,982.77
2023-05-16T10:26:48.184Z,982.83
2023-05-16T10:27:48.146Z,982.83
2023-05-16T10:28:48.143Z,982.82
2023-05-16T10:29:54.764Z,982.79
2023-05-16T10:30:49.107Z,982.81
2023-05-16T10:31:48.130Z,982.89
2023-05-16T10:32:48.150Z,982.88
2023-05-16T10:33:48.086Z,982.89
2023-05-16T10:34:48.064Z,982.92
2023-05-16T10:35:48.062Z,982.85
2023-05-16T10:36:48.052Z,982.82
2023-05-16T10:37:48.032Z,982.86
2023-05-16T10:38:48.024Z,982.88
2023-05-16T10:39:48.028Z,982.93
2023-05-16T10:40:48.013Z,982.89
2023-05-16T10:41:48.002Z,982.89
2023-05-16T10:42:47.977Z,982.87
2023-05-16T10:43:48.005Z,982.87
2023-05-16T10:44:58.519Z,982.94
2023-05-16T10:45:48.986Z,982.94
2023-05-16T10:46:47.939Z,982.87
2023-05-16T10:47:47.946Z,982.95
2023-05-16T10:48:49.638Z,982.90
2023-05-16T10:49:47.905Z,982.92
2023-05-16T10:50:47.882Z,982.98
2023-05-16T10:51:47.898Z,982.99
2023-05-16T10:52:47.867Z,983.02
2023-05-16T10:53:47.885Z,983.01
2023-05-16T10:54:47.859Z,982.95
2023-05-16T10:55:47.845Z,982.94
2023-05-16T10:56:47.825Z,982.93
2023-05-16T10:57:47.827Z,982.96
2023-05-16T10:58:47.802Z,982.99
2023-05-16T10:59:47.832Z,982.93
2023-05-16T11:00:47.782Z,982.95
2023-05-16T11:01:47.890Z,982.99
2023-05-16T11:02:47.892Z,983.04
2023-05-16T11:03:47.774Z,982.99
2023-05-16T11:04:47.737Z,982.99
2023-05-16T11:05:47.779Z,983.04
2023-05-16T11:06:47.713Z,983.05
2023-05-16T11:07:47.707Z,983.04
2023-05-16T11:08:47.690Z,983.06
2023-05-16T11:09:47.691Z,983.06
2023-05-16T11:10:47.667Z,983.10
2023-05-16T11:11:49.399Z,983.08
2023-05-16T11:12:47.655Z,983.10
2023-05-16T11:13:47.642Z,983.09
2023-05-16T11:14:47.637Z,983.18
2023-05-16T11:15:47.620Z,983.17
2023-05-16T11:16:47.670Z,983.23
2023-05-16T11:17:47.654Z,983.32
2023-05-16T11:18:47.608Z,983.21
2023-05-16T11:19:47.579Z,983.28
2023-05-16T11:20:47.560Z,983.28
2023-05-16T11:21:47.554Z,983.25
2023-05-16T11:22:47.543Z,983.26
2023-05-16T11:23:47.545Z,983.33
2023-05-16T11:24:47.516Z,983.30
2023-05-16T11:25:47.516Z,983.30
2023-05-16T11:26:47.494Z,983.32
2023-05-16T11:27:47.523Z,983.27
2023-05-16T11:28:47.474Z,983.33
2023-05-16T11:29:47.473Z,983.33
2023-05-16T11:30:47.474Z,983.33
2023-05-16T11:31:47.532Z,983.35
2023-05-16T11:32:47.502Z,983.36
2023-05-16T11:33:47.438Z,983.43
2023-05-16T11:34:47.413Z,983.38
2023-05-16T11:35:47.428Z,983.38
2023-05-16T11:36:47.382Z,983.37
2023-05-16T11:37:47.388Z,983.44
2023-05-16T11:38:47.367Z,983.40
2023-05-16T11:39:47.432Z,983.41
2023-05-16T11:40:47.359Z,983.44
2023-05-16T11:41:48.925Z,983.42
2023-05-16T11:42:47.322Z,983.47
2023-05-16T11:43:47.335Z,983.44
2023-05-16T11:44:47.312Z,983.47
2023-05-16T11:45:47.316Z,983.47
2023-05-16T11:46:47.332Z,983.44
2023-05-16T11:47:47.293Z,983.45
2023-05-16T11:48:47.439Z,983.50
2023-05-16T11:49:48.873Z,983.46
2023-05-16T11:50:47.242Z,983.46
2023-05-16T11:51:47.229Z,983.46
2023-05-16T11:52:47.223Z,983.46
2023-05-16T11:53:47.225Z,983.56
2023-05-16T11:54:47.202Z,983.48
2023-05-16T11:55:50.726Z,983.52
2023-05-16T11:56:48.175Z,983.53
2023-05-16T11:57:47.161Z,983.47
2023-05-16T11:58:47.163Z,983.50
2023-05-16T11:59:47.136Z,983.55
2023-05-16T12:00:47.145Z,983.49
2023-05-16T12:01:47.119Z,983.48
2023-05-16T12:02:47.209Z,983.49
2023-05-16T12:03:47.444Z,983.56
2023-05-16T12:04:47.214Z,983.54
2023-05-16T12:05:47.217Z,983.46
2023-05-16T12:06:47.087Z,983.49
2023-05-16T12:07:47.054Z,983.56
2023-05-16T12:08:47.047Z,983.53
2023-05-16T12:09:47.035Z,983.55
2023-05-16T12:10:47.053Z,983.58
2023-05-16T12:11:47.020Z,983.60
2023-05-16T12:12:47.014Z,983.57
2023-05-16T12:13:46.989Z,983.63
2023-05-16T12:14:46.977Z,983.59
2023-05-16T12:15:46.961Z,983.58
2023-05-16T12:16:47.045Z,983.62
2023-05-16T12:17:47.023Z,983.63
2023-05-16T12:18:46.990Z,983.65
2023-05-16T12:19:46.926Z,983.59
2023-05-16T12:20:47.814Z,983.64
2023-05-16T12:21:46.952Z,983.67
2023-05-16T12:22:46.942Z,983.69
2023-05-16T12:23:46.892Z,983.71
2023-05-16T12:24:46.895Z,983.68
2023-05-16T12:25:46.924Z,983.66
2023-05-16T12:26:46.855Z,983.70
2023-05-16T12:27:46.898Z,983.70
2023-05-16T12:28:46.840Z,983.69